Time;durP1;ratioP1;P1;durP2;ratioP2;P2;SDS_P1;SDS_P2;PMS_P1;PMS_P2;Temp;Humidity;BMP_temperature;BMP_pressure;BME280_temperature;BME280_humidity;BME280_pressure;Samples;Min_cycle;Max_cycle;Signal;HPM_P1;HPM_P2
2022/06/28 00:00:38;;;;;;;5.85;5.25;;;;;;;;;;2090708;28;20025;-73
2022/06/28 00:01:57;;;;;;;6.90;5.45;;;;;;;;;;2092689;28;20116;-72
2022/06/28 00:03:16;;;;;;;6.18;5.57;;;;;;;;;;2092044;28;20021;-72
2022/06/28 00:04:35;;;;;;;9.70;5.30;;;;;;;;;;2091871;28;20037;-73
2022/06/28 00:05:54;;;;;;;6.07;5.38;;;;;;;;;;2091321;28;20024;-73
2022/06/28 00:07:14;;;;;;;7.78;4.78;;;;;;;;;;2091834;28;20028;-72
2022/06/28 00:08:32;;;;;;;6.05;5.30;;;;;;;;;;2092596;28;20115;-72
2022/06/28 00:09:51;;;;;;;5.60;5.20;;;;;;;;;;2091190;28;20033;-72
2022/06/28 00:11:10;;;;;;;5.22;4.82;;;;;;;;;;2091897;28;20033;-74
2022/06/28 00:12:29;;;;;;;5.78;5.00;;;;;;;;;;2091344;28;20392;-73
2022/06/28 00:13:48;;;;;;;5.50;5.07;;;;;;;;;;2092930;28;20033;-72
2022/06/28 00:16:47;;;;;;;8.98;5.63;;;;;;;;;;2093712;28;20060;-73
2022/06/28 00:18:06;;;;;;;5.55;5.15;;;;;;;;;;2090108;28;20037;-73
2022/06/28 00:19:25;;;;;;;5.53;5.13;;;;;;;;;;2093171;28;20032;-73
2022/06/28 00:20:44;;;;;;;5.18;4.88;;;;;;;;;;2092008;28;21219;-73
2022/06/28 00:22:02;;;;;;;5.68;5.35;;;;;;;;;;2092148;28;20017;-73
2022/06/28 00:23:21;;;;;;;6.15;5.50;;;;;;;;;;2091608;28;20521;-73
2022/06/28 00:24:40;;;;;;;5.90;5.40;;;;;;;;;;2090357;28;20037;-74
2022/06/28 00:25:59;;;;;;;6.03;4.80;;;;;;;;;;2089955;28;20037;-72
2022/06/28 00:27:18;;;;;;;5.35;5.05;;;;;;;;;;2091686;28;20033;-73
2022/06/28 00:28:37;;;;;;;5.78;5.03;;;;;;;;;;2091289;28;20100;-73
2022/06/28 00:29:55;;;;;;;5.55;5.15;;;;;;;;;;2091292;28;20033;-74
2022/06/28 00:31:14;;;;;;;6.10;5.38;;;;;;;;;;2091422;28;20028;-72
2022/06/28 00:32:33;;;;;;;5.10;4.80;;;;;;;;;;2086508;28;20394;-73
2022/06/28 00:33:52;;;;;;;5.35;5.00;;;;;;;;;;2091370;28;20032;-75
2022/06/28 00:35:11;;;;;;;5.45;5.05;;;;;;;;;;2092459;28;20589;-73
2022/06/28 00:36:30;;;;;;;5.18;4.70;;;;;;;;;;2092167;28;20033;-73
2022/06/28 00:37:50;;;;;;;6.55;5.07;;;;;;;;;;2091440;28;20665;-74
2022/06/28 00:39:09;;;;;;;5.53;5.18;;;;;;;;;;2089964;28;20029;-72
2022/06/28 00:40:28;;;;;;;6.53;5.65;;;;;;;;;;2090207;28;20025;-73
2022/06/28 00:41:47;;;;;;;5.75;5.25;;;;;;;;;;2091575;28;20585;-74
2022/06/28 00:43:06;;;;;;;11.57;5.10;;;;;;;;;;2090718;28;20041;-72
2022/06/28 00:44:25;;;;;;;8.10;5.28;;;;;;;;;;2089542;28;20028;-72
2022/06/28 00:45:44;;;;;;;8.55;5.22;;;;;;;;;;2089879;28;20033;-73
2022/06/28 00:47:03;;;;;;;5.70;5.22;;;;;;;;;;2091787;28;20033;-74
2022/06/28 00:48:23;;;;;;;6.57;5.15;;;;;;;;;;2089822;28;20104;-74
2022/06/28 00:49:42;;;;;;;5.95;5.55;;;;;;;;;;2091700;28;20028;-73
2022/06/28 00:51:02;;;;;;;5.60;5.20;;;;;;;;;;2089905;28;20044;-72
2022/06/28 00:52:20;;;;;;;5.38;4.95;;;;;;;;;;2087208;28;20595;-73
2022/06/28 00:53:39;;;;;;;5.80;5.20;;;;;;;;;;2091060;28;20045;-72
2022/06/28 00:54:58;;;;;;;8.30;5.47;;;;;;;;;;2090124;28;20061;-74
2022/06/28 00:56:17;;;;;;;5.53;5.13;;;;;;;;;;2090193;28;20029;-73
2022/06/28 00:57:36;;;;;;;5.60;5.10;;;;;;;;;;2091503;28;20052;-72
2022/06/28 00:58:55;;;;;;;6.07;5.40;;;;;;;;;;2091994;28;20036;-73
2022/06/28 01:00:14;;;;;;;5.88;5.18;;;;;;;;;;2085824;28;20838;-72
2022/06/28 01:01:34;;;;;;;5.40;5.00;;;;;;;;;;2088412;28;20029;-71
2022/06/28 01:02:52;;;;;;;5.88;5.47;;;;;;;;;;2091494;28;20021;-73
2022/06/28 01:04:11;;;;;;;5.50;5.10;;;;;;;;;;2093091;28;20052;-72
2022/06/28 01:05:30;;;;;;;6.25;5.85;;;;;;;;;;2089108;28;20028;-72
2022/06/28 01:06:49;;;;;;;6.63;5.20;;;;;;;;;;2092416;28;20033;-74
2022/06/28 01:08:09;;;;;;;6.55;5.20;;;;;;;;;;2091577;28;20420;-73
2022/06/28 01:09:28;;;;;;;5.53;5.13;;;;;;;;;;2091104;28;20181;-72
2022/06/28 01:10:46;;;;;;;5.65;5.15;;;;;;;;;;2087454;28;20036;-72
2022/06/28 01:12:05;;;;;;;5.82;5.32;;;;;;;;;;2090845;28;20036;-72
2022/06/28 01:13:24;;;;;;;5.80;5.38;;;;;;;;;;2091389;28;20037;-72
2022/06/28 01:14:43;;;;;;;5.30;4.90;;;;;;;;;;2092541;28;20032;-72
2022/06/28 01:16:02;;;;;;;5.72;5.32;;;;;;;;;;2088550;28;20478;-72
2022/06/28 01:17:21;;;;;;;5.82;5.47;;;;;;;;;;2090712;28;20057;-74
2022/06/28 01:18:40;;;;;;;6.30;5.80;;;;;;;;;;2089285;28;20040;-73
2022/06/28 01:19:59;;;;;;;6.18;5.57;;;;;;;;;;2089755;28;20230;-72
2022/06/28 01:21:18;;;;;;;6.88;6.13;;;;;;;;;;2091534;28;20041;-72
2022/06/28 01:22:41;;;;;;;6.68;6.05;;;;;;;;;;2090267;28;20029;-72
2022/06/28 01:24:01;;;;;;;7.55;5.45;;;;;;;;;;2089020;28;20036;-72
2022/06/28 01:25:20;;;;;;;5.78;5.25;;;;;;;;;;2090488;28;20037;-74
2022/06/28 01:26:39;;;;;;;8.38;5.60;;;;;;;;;;2092635;28;20033;-72
2022/06/28 01:27:58;;;;;;;5.95;5.57;;;;;;;;;;2091778;28;20033;-72
2022/06/28 01:29:17;;;;;;;6.25;5.80;;;;;;;;;;2090345;28;20033;-73
2022/06/28 01:30:36;;;;;;;6.20;5.60;;;;;;;;;;2089077;28;20029;-72
2022/06/28 01:31:55;;;;;;;6.32;5.80;;;;;;;;;;2091932;28;20033;-72
2022/06/28 01:33:14;;;;;;;5.82;5.35;;;;;;;;;;2087379;28;20478;-73
2022/06/28 01:34:33;;;;;;;7.15;6.50;;;;;;;;;;2092390;28;20028;-73
2022/06/28 01:35:52;;;;;;;6.32;5.93;;;;;;;;;;2091526;28;20119;-72
2022/06/28 01:37:12;;;;;;;7.05;5.65;;;;;;;;;;2092251;28;20028;-73
2022/06/28 01:38:31;;;;;;;6.13;5.82;;;;;;;;;;2092445;28;20063;-73
2022/06/28 01:39:50;;;;;;;6.50;6.00;;;;;;;;;;2091531;28;20041;-73
2022/06/28 01:42:47;;;;;;;6.20;5.70;;;;;;;;;;2091012;28;20021;-73
2022/06/28 01:44:08;;;;;;;9.05;6.10;;;;;;;;;;2090375;28;20029;-72
2022/06/28 01:45:28;;;;;;;7.05;6.50;;;;;;;;;;2090645;28;20393;-72
2022/06/28 01:46:47;;;;;;;6.97;6.38;;;;;;;;;;2091436;28;20024;-73
2022/06/28 01:48:06;;;;;;;7.05;6.45;;;;;;;;;;2090486;28;20033;-72
2022/06/28 01:49:25;;;;;;;7.00;6.40;;;;;;;;;;2089316;28;20025;-72
2022/06/28 01:50:45;;;;;;;7.80;6.75;;;;;;;;;;2090478;28;20111;-73
2022/06/28 01:52:04;;;;;;;6.50;5.97;;;;;;;;;;2089147;28;20024;-76
2022/06/28 01:53:23;;;;;;;6.55;5.88;;;;;;;;;;2090136;28;20502;-72
2022/06/28 01:54:43;;;;;;;6.53;6.13;;;;;;;;;;2092043;28;20044;-72
2022/06/28 01:56:01;;;;;;;6.63;6.15;;;;;;;;;;2089541;28;20063;-72
2022/06/28 01:57:20;;;;;;;6.30;5.88;;;;;;;;;;2090700;28;20032;-74
2022/06/28 01:58:39;;;;;;;6.85;6.38;;;;;;;;;;2092344;28;20033;-73
2022/06/28 01:59:58;;;;;;;7.13;6.47;;;;;;;;;;2087443;28;20425;-72
2022/06/28 02:01:17;;;;;;;7.38;6.70;;;;;;;;;;2087159;28;20060;-72
2022/06/28 02:02:36;;;;;;;6.47;6.15;;;;;;;;;;2089623;28;20033;-73
2022/06/28 02:03:55;;;;;;;6.90;6.38;;;;;;;;;;2088757;28;20021;-72
2022/06/28 02:05:14;;;;;;;6.57;6.18;;;;;;;;;;2091599;28;20041;-72
2022/06/28 02:06:33;;;;;;;6.72;6.22;;;;;;;;;;2092133;28;20056;-72
2022/06/28 02:07:52;;;;;;;7.30;6.78;;;;;;;;;;2092549;28;20041;-72
2022/06/28 02:09:11;;;;;;;6.78;6.25;;;;;;;;;;2093723;28;20025;-72
2022/06/28 02:10:30;;;;;;;7.00;6.60;;;;;;;;;;2092279;28;20119;-72
2022/06/28 02:11:49;;;;;;;7.43;6.72;;;;;;;;;;2093244;28;20025;-74
2022/06/28 02:13:08;;;;;;;6.82;6.22;;;;;;;;;;2093340;28;20025;-72
2022/06/28 02:14:27;;;;;;;7.60;6.85;;;;;;;;;;2090893;28;20498;-72
2022/06/28 02:15:46;;;;;;;6.70;6.20;;;;;;;;;;2090991;28;20029;-72
2022/06/28 02:17:05;;;;;;;7.50;6.80;;;;;;;;;;2091429;28;20112;-72
2022/06/28 02:18:24;;;;;;;7.53;6.22;;;;;;;;;;2092187;28;20086;-72
2022/06/28 02:19:43;;;;;;;7.57;6.97;;;;;;;;;;2093011;28;20033;-73
2022/06/28 02:21:02;;;;;;;7.22;6.63;;;;;;;;;;2092059;28;20061;-72
2022/06/28 02:22:21;;;;;;;7.35;6.90;;;;;;;;;;2090095;28;20029;-72
2022/06/28 02:23:40;;;;;;;7.38;6.55;;;;;;;;;;2088514;28;20497;-74
2022/06/28 02:24:58;;;;;;;7.90;7.13;;;;;;;;;;2094105;28;20470;-73
2022/06/28 02:26:17;;;;;;;8.38;7.30;;;;;;;;;;2093111;28;20029;-73
2022/06/28 02:27:36;;;;;;;7.22;6.72;;;;;;;;;;2092617;28;20037;-72
2022/06/28 02:28:55;;;;;;;6.78;6.40;;;;;;;;;;2092342;28;20025;-74
2022/06/28 02:30:14;;;;;;;7.95;7.25;;;;;;;;;;2091799;28;20030;-72
2022/06/28 02:31:33;;;;;;;8.80;7.63;;;;;;;;;;2090921;28;20107;-72
2022/06/28 02:32:52;;;;;;;7.75;7.15;;;;;;;;;;2093138;28;20108;-73
2022/06/28 02:40:21;;;;;;;7.38;6.88;;;;;;;;;;2091298;28;20417;-74
2022/06/28 02:40:41;;;;;;;7.82;7.25;;;;;;;;;;2091215;28;20032;-75
2022/06/28 02:42:00;;;;;;;8.18;7.40;;;;;;;;;;2087780;28;20033;-73
2022/06/28 02:43:19;;;;;;;7.20;6.80;;;;;;;;;;2091375;28;20029;-73
2022/06/28 02:44:38;;;;;;;7.50;7.05;;;;;;;;;;2090499;28;20021;-72
2022/06/28 02:45:57;;;;;;;7.43;6.97;;;;;;;;;;2090922;28;20021;-72
2022/06/28 02:47:16;;;;;;;8.50;6.47;;;;;;;;;;2091894;28;20037;-72
2022/06/28 02:48:35;;;;;;;7.43;7.03;;;;;;;;;;2091303;28;20037;-72
2022/06/28 02:49:54;;;;;;;8.05;7.45;;;;;;;;;;2090997;28;20041;-72
2022/06/28 02:51:13;;;;;;;8.18;7.35;;;;;;;;;;2090363;28;20505;-72
2022/06/28 02:52:32;;;;;;;9.38;7.38;;;;;;;;;;2089766;28;20045;-74
2022/06/28 02:53:54;;;;;;;7.68;6.93;;;;;;;;;;2090535;28;20037;-73
2022/06/28 02:55:13;;;;;;;7.63;7.03;;;;;;;;;;2091103;28;20024;-72
2022/06/28 02:56:32;;;;;;;7.88;7.28;;;;;;;;;;2090276;28;20542;-72
2022/06/28 02:57:51;;;;;;;7.63;6.97;;;;;;;;;;2091699;28;20116;-73
2022/06/28 02:59:10;;;;;;;7.80;7.03;;;;;;;;;;2090717;28;20040;-72
2022/06/28 03:00:29;;;;;;;8.48;6.97;;;;;;;;;;2091219;28;20036;-72
2022/06/28 03:01:48;;;;;;;8.02;7.22;;;;;;;;;;2091766;28;20018;-72
2022/06/28 03:03:07;;;;;;;8.38;7.57;;;;;;;;;;2089242;28;20037;-73
2022/06/28 03:04:26;;;;;;;8.82;7.60;;;;;;;;;;2089278;28;20078;-73
2022/06/28 03:05:45;;;;;;;7.70;7.10;;;;;;;;;;2091290;28;20122;-72
2022/06/28 03:07:04;;;;;;;7.45;6.97;;;;;;;;;;2089375;28;20021;-72
2022/06/28 03:08:23;;;;;;;8.57;7.72;;;;;;;;;;2092122;28;20032;-72
2022/06/28 03:09:42;;;;;;;7.53;6.88;;;;;;;;;;2091401;28;20025;-72
2022/06/28 03:11:00;;;;;;;7.80;7.30;;;;;;;;;;2088182;28;20037;-72
2022/06/28 03:12:19;;;;;;;7.78;7.10;;;;;;;;;;2090769;28;20037;-72
2022/06/28 03:13:38;;;;;;;8.13;7.53;;;;;;;;;;2088475;28;20040;-74
2022/06/28 03:14:57;;;;;;;9.88;7.50;;;;;;;;;;2091727;28;20025;-73
2022/06/28 03:16:16;;;;;;;8.63;8.02;;;;;;;;;;2091055;28;20037;-72
2022/06/28 03:17:35;;;;;;;8.23;7.57;;;;;;;;;;2090022;28;20581;-72
2022/06/28 03:18:53;;;;;;;8.18;7.57;;;;;;;;;;2091575;28;20028;-73
2022/06/28 03:20:12;;;;;;;7.72;7.25;;;;;;;;;;2091542;28;20033;-73
2022/06/28 03:21:31;;;;;;;7.55;7.03;;;;;;;;;;2092720;28;20045;-71
2022/06/28 03:22:50;;;;;;;8.80;7.20;;;;;;;;;;2090978;28;20060;-72
2022/06/28 03:24:09;;;;;;;8.23;7.38;;;;;;;;;;2092028;28;20037;-72
2022/06/28 03:25:28;;;;;;;8.27;7.57;;;;;;;;;;2091637;28;20684;-72
2022/06/28 03:26:50;;;;;;;8.52;7.80;;;;;;;;;;2092579;28;20498;-72
2022/06/28 03:28:09;;;;;;;8.98;8.18;;;;;;;;;;2090456;28;20028;-72
2022/06/28 03:29:28;;;;;;;9.07;8.38;;;;;;;;;;2091368;28;20037;-73
2022/06/28 03:30:47;;;;;;;8.50;7.70;;;;;;;;;;2089775;28;20064;-73
2022/06/28 03:32:06;;;;;;;9.18;8.43;;;;;;;;;;2092531;28;20032;-73
2022/06/28 03:33:25;;;;;;;7.68;7.28;;;;;;;;;;2089508;28;20045;-73
2022/06/28 03:34:44;;;;;;;7.68;7.18;;;;;;;;;;2090206;28;20540;-72
2022/06/28 03:36:03;;;;;;;8.40;7.90;;;;;;;;;;2089003;28;20116;-72
2022/06/28 03:37:22;;;;;;;8.40;7.70;;;;;;;;;;2092709;28;20104;-73
2022/06/28 03:38:41;;;;;;;8.27;7.72;;;;;;;;;;2091235;28;20460;-72
2022/06/28 03:40:00;;;;;;;8.13;7.63;;;;;;;;;;2089302;28;20037;-72
2022/06/28 03:41:22;;;;;;;8.13;7.43;;;;;;;;;;2089977;28;20029;-75
2022/06/28 03:42:41;;;;;;;8.80;7.82;;;;;;;;;;2090003;28;20107;-72
2022/06/28 03:44:00;;;;;;;9.50;8.50;;;;;;;;;;2088993;28;20037;-72
2022/06/28 03:45:19;;;;;;;8.23;7.60;;;;;;;;;;2090859;28;20036;-73
2022/06/28 03:46:38;;;;;;;8.95;8.13;;;;;;;;;;2090112;28;20037;-72
2022/06/28 03:47:57;;;;;;;8.00;7.28;;;;;;;;;;2089775;28;20449;-72
2022/06/28 03:49:16;;;;;;;8.45;7.95;;;;;;;;;;2089492;28;20032;-72
2022/06/28 03:50:35;;;;;;;8.35;7.55;;;;;;;;;;2085741;28;20017;-72
2022/06/28 03:51:54;;;;;;;8.40;7.65;;;;;;;;;;2092299;28;20025;-72
2022/06/28 03:53:13;;;;;;;10.15;7.72;;;;;;;;;;2089699;28;20048;-74
2022/06/28 03:54:32;;;;;;;8.32;7.72;;;;;;;;;;2090326;28;20033;-72
2022/06/28 03:55:50;;;;;;;8.90;6.97;;;;;;;;;;2090234;28;20029;-75
2022/06/28 03:57:09;;;;;;;8.32;7.60;;;;;;;;;;2089709;28;20040;-75
2022/06/28 03:58:29;;;;;;;8.35;7.65;;;;;;;;;;2091220;28;20111;-74
2022/06/28 03:59:47;;;;;;;8.40;7.70;;;;;;;;;;2090215;28;20064;-73
2022/06/28 04:01:06;;;;;;;8.45;7.72;;;;;;;;;;2091356;28;20093;-72
2022/06/28 04:02:25;;;;;;;7.28;6.82;;;;;;;;;;2089929;28;20060;-73
2022/06/28 04:03:44;;;;;;;8.07;7.32;;;;;;;;;;2089905;28;20030;-73
2022/06/28 04:05:03;;;;;;;8.98;6.82;;;;;;;;;;2090678;28;20092;-73
2022/06/28 04:06:22;;;;;;;7.72;7.13;;;;;;;;;;2091984;28;20036;-72
2022/06/28 04:07:41;;;;;;;8.27;7.25;;;;;;;;;;2089161;28;20017;-73
2022/06/28 04:09:00;;;;;;;7.05;6.55;;;;;;;;;;2090597;28;20474;-73
2022/06/28 04:10:19;;;;;;;7.97;7.28;;;;;;;;;;2092218;28;20056;-72
2022/06/28 04:11:38;;;;;;;7.88;7.28;;;;;;;;;;2091466;28;20417;-73
2022/06/28 04:12:57;;;;;;;8.30;7.57;;;;;;;;;;2087052;28;20096;-74
2022/06/28 04:14:16;;;;;;;7.28;6.72;;;;;;;;;;2090882;28;20530;-73
2022/06/28 04:15:35;;;;;;;7.50;7.07;;;;;;;;;;2090641;28;20028;-75
2022/06/28 04:16:54;;;;;;;7.85;7.35;;;;;;;;;;2092723;28;20119;-73
2022/06/28 04:18:13;;;;;;;9.07;7.63;;;;;;;;;;2090360;28;20162;-73
2022/06/28 04:19:32;;;;;;;7.30;6.80;;;;;;;;;;2090960;28;20025;-72
2022/06/28 04:20:51;;;;;;;7.38;6.97;;;;;;;;;;2090728;28;20483;-74
2022/06/28 04:22:09;;;;;;;7.38;6.88;;;;;;;;;;2091433;28;20053;-74
2022/06/28 04:23:28;;;;;;;7.40;6.93;;;;;;;;;;2091070;28;20406;-73
2022/06/28 04:24:47;;;;;;;7.38;6.82;;;;;;;;;;2089324;28;20025;-73
2022/06/28 04:26:06;;;;;;;7.55;6.95;;;;;;;;;;2091000;28;20033;-73
2022/06/28 04:27:25;;;;;;;7.30;6.80;;;;;;;;;;2090454;28;20124;-73
2022/06/28 04:28:46;;;;;;;7.43;6.95;;;;;;;;;;2088019;28;20116;-73
2022/06/28 04:30:05;;;;;;;7.90;6.45;;;;;;;;;;2090638;28;20111;-73
2022/06/28 04:31:24;;;;;;;7.38;6.88;;;;;;;;;;2090406;28;20041;-74
2022/06/28 04:32:43;;;;;;;7.35;6.85;;;;;;;;;;2088981;28;20029;-75
2022/06/28 04:34:02;;;;;;;9.60;7.25;;;;;;;;;;2086916;28;20115;-72
2022/06/28 04:35:21;;;;;;;7.78;7.18;;;;;;;;;;2090335;28;20635;-73
2022/06/28 04:36:40;;;;;;;8.13;7.35;;;;;;;;;;2088796;28;20593;-73
2022/06/28 04:37:59;;;;;;;7.03;6.28;;;;;;;;;;2092918;28;20123;-76
2022/06/28 04:39:18;;;;;;;7.70;7.00;;;;;;;;;;2092564;28;20036;-73
2022/06/28 04:40:37;;;;;;;7.47;7.07;;;;;;;;;;2091795;28;20041;-73
2022/06/28 04:41:56;;;;;;;7.65;6.95;;;;;;;;;;2090494;28;20029;-73
2022/06/28 04:43:15;;;;;;;7.32;6.63;;;;;;;;;;2089854;28;20068;-73
2022/06/28 04:44:34;;;;;;;8.25;7.32;;;;;;;;;;2090940;28;20032;-73
2022/06/28 04:45:53;;;;;;;7.30;6.65;;;;;;;;;;2091315;28;20022;-72
2022/06/28 04:47:12;;;;;;;8.75;6.47;;;;;;;;;;2090729;28;20021;-74
2022/06/28 04:48:30;;;;;;;7.20;6.60;;;;;;;;;;2093161;28;20101;-75
2022/06/28 04:49:50;;;;;;;7.65;7.05;;;;;;;;;;2088892;28;20486;-72
2022/06/28 04:51:12;;;;;;;7.10;6.50;;;;;;;;;;2090408;28;20041;-73
2022/06/28 04:52:31;;;;;;;6.20;5.80;;;;;;;;;;2089826;28;20029;-74
2022/06/28 04:53:49;;;;;;;7.07;6.47;;;;;;;;;;2088106;28;20033;-73
2022/06/28 04:55:08;;;;;;;7.13;6.68;;;;;;;;;;2089182;28;20033;-74
2022/06/28 04:56:27;;;;;;;7.38;6.60;;;;;;;;;;2091914;28;20033;-73
2022/06/28 04:57:46;;;;;;;6.90;6.40;;;;;;;;;;2090708;28;20028;-75
2022/06/28 04:59:05;;;;;;;7.25;6.60;;;;;;;;;;2090043;28;20044;-73
2022/06/28 05:00:24;;;;;;;8.15;6.60;;;;;;;;;;2090316;28;20040;-74
2022/06/28 05:01:43;;;;;;;6.40;5.88;;;;;;;;;;2088351;28;20050;-74
2022/06/28 05:03:02;;;;;;;6.07;5.68;;;;;;;;;;2089531;28;20482;-73
2022/06/28 05:04:21;;;;;;;7.10;6.43;;;;;;;;;;2090560;28;20037;-74
2022/06/28 05:05:39;;;;;;;7.35;6.57;;;;;;;;;;2086373;28;20028;-75
2022/06/28 05:06:58;;;;;;;6.28;5.78;;;;;;;;;;2088698;28;20071;-73
2022/06/28 05:08:17;;;;;;;7.32;6.40;;;;;;;;;;2089577;28;20020;-74
2022/06/28 05:09:36;;;;;;;6.00;5.70;;;;;;;;;;2088785;28;20059;-73
2022/06/28 05:10:54;;;;;;;8.98;6.30;;;;;;;;;;2087580;28;20032;-74
2022/06/28 05:12:13;;;;;;;8.57;6.75;;;;;;;;;;2089682;28;20570;-73
2022/06/28 05:13:31;;;;;;;12.07;7.40;;;;;;;;;;2090618;28;20040;-73
2022/06/28 05:14:51;;;;;;;6.82;6.22;;;;;;;;;;2091146;28;20049;-74
2022/06/28 05:16:09;;;;;;;7.32;6.72;;;;;;;;;;2090716;28;20032;-74
2022/06/28 05:17:28;;;;;;;7.35;6.60;;;;;;;;;;2092133;28;20056;-74
2022/06/28 05:18:48;;;;;;;6.35;5.72;;;;;;;;;;2091391;28;20052;-74
2022/06/28 05:20:07;;;;;;;7.53;5.50;;;;;;;;;;2091218;28;20037;-74
2022/06/28 05:21:26;;;;;;;7.65;5.93;;;;;;;;;;2088909;28;20124;-74
2022/06/28 05:22:46;;;;;;;6.35;5.82;;;;;;;;;;2091657;28;20016;-73
2022/06/28 05:24:05;;;;;;;7.00;5.60;;;;;;;;;;2090357;28;20029;-73
2022/06/28 05:25:25;;;;;;;6.18;5.50;;;;;;;;;;2091185;28;20025;-75
2022/06/28 05:26:44;;;;;;;6.28;5.53;;;;;;;;;;2089712;28;20029;-72
2022/06/28 05:28:03;;;;;;;10.00;5.60;;;;;;;;;;2089487;28;20032;-74
2022/06/28 05:29:22;;;;;;;6.40;5.53;;;;;;;;;;2089116;28;20488;-73
2022/06/28 05:30:41;;;;;;;6.95;6.35;;;;;;;;;;2090014;28;20081;-70
2022/06/28 05:32:00;;;;;;;6.47;5.45;;;;;;;;;;2091383;28;20029;-72
2022/06/28 05:33:19;;;;;;;7.03;6.32;;;;;;;;;;2087906;28;20032;-73
2022/06/28 05:34:38;;;;;;;6.75;5.75;;;;;;;;;;2088304;28;20028;-76
2022/06/28 05:35:57;;;;;;;5.57;5.18;;;;;;;;;;2091985;28;20029;-76
2022/06/28 05:37:16;;;;;;;6.07;5.45;;;;;;;;;;2090587;28;20087;-76
2022/06/28 05:38:35;;;;;;;6.30;5.80;;;;;;;;;;2087111;28;20037;-76
2022/06/28 05:39:54;;;;;;;5.90;5.25;;;;;;;;;;2089436;28;20033;-75
2022/06/28 05:41:13;;;;;;;7.50;5.57;;;;;;;;;;2090103;28;20534;-75
2022/06/28 05:42:32;;;;;;;7.38;5.18;;;;;;;;;;2091948;28;20044;-76
2022/06/28 05:43:51;;;;;;;6.43;5.95;;;;;;;;;;2091228;28;20025;-75
2022/06/28 05:45:10;;;;;;;5.20;4.80;;;;;;;;;;2089162;28;20036;-77
2022/06/28 05:46:29;;;;;;;5.97;5.38;;;;;;;;;;2090497;28;20033;-76
2022/06/28 05:47:48;;;;;;;5.75;5.13;;;;;;;;;;2091000;28;20033;-75
2022/06/28 05:49:07;;;;;;;6.07;4.90;;;;;;;;;;2090345;28;20041;-75
2022/06/28 05:50:26;;;;;;;9.65;5.05;;;;;;;;;;2086046;28;20033;-78
2022/06/28 05:51:44;;;;;;;10.50;5.32;;;;;;;;;;2089016;28;20029;-77
2022/06/28 05:53:03;;;;;;;5.47;4.97;;;;;;;;;;2090394;28;20650;-77
2022/06/28 05:54:22;;;;;;;9.48;5.00;;;;;;;;;;2092100;28;20033;-78
2022/06/28 05:55:41;;;;;;;5.50;4.53;;;;;;;;;;2089559;28;20036;-78
2022/06/28 05:57:01;;;;;;;9.70;5.00;;;;;;;;;;2092060;28;20470;-79
2022/06/28 05:58:20;;;;;;;7.90;5.10;;;;;;;;;;2089639;28;20101;-78
2022/06/28 05:59:39;;;;;;;5.28;4.90;;;;;;;;;;2094009;28;20164;-78
2022/06/28 06:00:58;;;;;;;5.35;5.00;;;;;;;;;;2091875;28;20029;-78
2022/06/28 06:02:17;;;;;;;6.70;5.25;;;;;;;;;;2092130;28;20025;-79
2022/06/28 06:03:37;;;;;;;5.63;5.15;;;;;;;;;;2090132;28;20029;-78
2022/06/28 06:04:57;;;;;;;7.22;4.90;;;;;;;;;;2092855;28;20020;-78
2022/06/28 06:06:16;;;;;;;8.35;4.45;;;;;;;;;;2092184;28;20390;-79
2022/06/28 06:07:35;;;;;;;5.07;4.68;;;;;;;;;;2090168;28;20029;-78
2022/06/28 06:08:53;;;;;;;4.95;4.63;;;;;;;;;;2093102;28;20037;-77
2022/06/28 06:10:12;;;;;;;4.70;4.30;;;;;;;;;;2090799;28;20037;-78
2022/06/28 06:11:31;;;;;;;6.97;4.30;;;;;;;;;;2092267;28;20072;-78
2022/06/28 06:12:49;;;;;;;7.10;4.47;;;;;;;;;;2089431;28;20518;-76
2022/06/28 06:14:08;;;;;;;5.18;4.75;;;;;;;;;;2088831;28;20112;-77
2022/06/28 06:15:27;;;;;;;5.13;4.72;;;;;;;;;;2086935;28;20139;-78
2022/06/28 06:16:50;;;;;;;4.78;4.57;;;;;;;;;;2092089;28;20061;-79
2022/06/28 06:18:09;;;;;;;4.88;4.47;;;;;;;;;;2089973;28;20083;-78
2022/06/28 06:19:28;;;;;;;4.78;4.45;;;;;;;;;;2089760;28;20036;-78
2022/06/28 06:20:47;;;;;;;4.90;4.60;;;;;;;;;;2087019;28;20037;-78
2022/06/28 06:22:06;;;;;;;8.85;4.72;;;;;;;;;;2092479;28;20119;-78
2022/06/28 06:23:26;;;;;;;4.97;4.65;;;;;;;;;;2092426;28;20103;-78
2022/06/28 06:24:45;;;;;;;7.85;5.30;;;;;;;;;;2092639;28;20448;-77
2022/06/28 06:26:04;;;;;;;5.43;4.30;;;;;;;;;;2090964;28;20036;-76
2022/06/28 06:27:23;;;;;;;4.80;4.40;;;;;;;;;;2091560;28;20033;-78
2022/06/28 06:28:41;;;;;;;6.47;4.60;;;;;;;;;;2091053;28;20029;-78
2022/06/28 06:30:00;;;;;;;4.88;4.47;;;;;;;;;;2092968;28;20029;-78
2022/06/28 06:31:19;;;;;;;4.97;4.68;;;;;;;;;;2090175;28;20032;-79
2022/06/28 06:32:38;;;;;;;5.28;4.38;;;;;;;;;;2090315;28;20041;-75
2022/06/28 06:33:57;;;;;;;4.90;4.57;;;;;;;;;;2091856;28;20041;-75
2022/06/28 06:35:15;;;;;;;5.28;4.95;;;;;;;;;;2091765;28;20028;-76
2022/06/28 06:36:35;;;;;;;10.38;5.20;;;;;;;;;;2090472;28;20444;-74
2022/06/28 06:38:00;;;;;;;5.93;4.72;;;;;;;;;;2091222;28;20017;-76
2022/06/28 06:39:19;;;;;;;5.35;4.75;;;;;;;;;;2091875;28;20521;-75
2022/06/28 06:40:38;;;;;;;6.75;4.68;;;;;;;;;;2092459;28;20455;-75
2022/06/28 06:41:57;;;;;;;5.47;4.97;;;;;;;;;;2090193;28;20024;-75
2022/06/28 06:43:16;;;;;;;5.13;4.68;;;;;;;;;;2093930;28;20033;-74
2022/06/28 06:44:35;;;;;;;5.30;4.90;;;;;;;;;;2091425;28;20398;-75
2022/06/28 06:45:54;;;;;;;5.25;4.40;;;;;;;;;;2089412;28;21203;-76
2022/06/28 06:47:13;;;;;;;7.07;5.00;;;;;;;;;;2091600;28;20033;-73
2022/06/28 06:48:32;;;;;;;5.60;4.78;;;;;;;;;;2090956;28;20056;-75
2022/06/28 06:49:51;;;;;;;6.93;5.00;;;;;;;;;;2091777;28;20032;-74
2022/06/28 06:51:10;;;;;;;6.57;4.47;;;;;;;;;;2091280;28;20405;-74
2022/06/28 06:52:29;;;;;;;5.50;4.55;;;;;;;;;;2093469;28;20052;-75
2022/06/28 06:53:48;;;;;;;10.07;5.03;;;;;;;;;;2091455;28;20028;-75
2022/06/28 06:55:08;;;;;;;9.32;4.57;;;;;;;;;;2091900;28;20107;-74
2022/06/28 06:56:27;;;;;;;5.32;4.03;;;;;;;;;;2090609;28;20394;-75
2022/06/28 06:57:46;;;;;;;6.43;4.00;;;;;;;;;;2093825;28;20440;-72
2022/06/28 06:59:07;;;;;;;4.35;3.95;;;;;;;;;;2089238;28;20398;-73
2022/06/28 07:00:26;;;;;;;5.13;4.63;;;;;;;;;;2091017;28;20737;-75
2022/06/28 07:01:45;;;;;;;5.13;4.63;;;;;;;;;;2089562;28;20029;-72
2022/06/28 07:03:04;;;;;;;5.35;4.85;;;;;;;;;;2092129;28;20135;-72
2022/06/28 07:04:22;;;;;;;5.63;4.47;;;;;;;;;;2091768;28;20033;-72
2022/06/28 07:05:41;;;;;;;4.80;4.40;;;;;;;;;;2089935;28;20426;-73
2022/06/28 07:07:00;;;;;;;7.45;4.10;;;;;;;;;;2090142;28;20667;-72
2022/06/28 07:08:19;;;;;;;4.78;4.30;;;;;;;;;;2088358;28;20111;-72
2022/06/28 07:09:39;;;;;;;7.38;3.95;;;;;;;;;;2092815;28;20414;-72
2022/06/28 07:10:58;;;;;;;7.55;4.47;;;;;;;;;;2089974;28;20560;-72
2022/06/28 07:12:16;;;;;;;6.65;4.60;;;;;;;;;;2088646;28;20045;-74
2022/06/28 07:13:35;;;;;;;7.15;4.57;;;;;;;;;;2090125;28;20457;-73
2022/06/28 07:14:54;;;;;;;4.72;4.30;;;;;;;;;;2090491;28;20033;-73
2022/06/28 07:16:13;;;;;;;4.43;4.00;;;;;;;;;;2088568;28;20025;-72
2022/06/28 07:17:32;;;;;;;4.63;4.28;;;;;;;;;;2091584;28;20517;-72
2022/06/28 07:18:51;;;;;;;4.50;4.07;;;;;;;;;;2091919;28;20029;-74
2022/06/28 07:20:11;;;;;;;6.57;4.40;;;;;;;;;;2090344;28;20033;-72
2022/06/28 07:21:30;;;;;;;4.22;4.00;;;;;;;;;;2091036;28;20807;-72
2022/06/28 07:22:49;;;;;;;4.93;4.40;;;;;;;;;;2091535;28;20021;-72
2022/06/28 07:24:09;;;;;;;4.45;4.15;;;;;;;;;;2091012;28;20028;-72
2022/06/28 07:25:28;;;;;;;9.23;4.25;;;;;;;;;;2090365;28;20439;-72
2022/06/28 07:26:49;;;;;;;7.75;4.50;;;;;;;;;;2091289;28;20051;-72
2022/06/28 07:28:10;;;;;;;5.32;4.07;;;;;;;;;;2092539;28;20025;-73
2022/06/28 07:29:29;;;;;;;4.68;4.28;;;;;;;;;;2089436;28;20040;-73
2022/06/28 07:30:48;;;;;;;3.97;3.67;;;;;;;;;;2088070;28;20043;-73
2022/06/28 07:32:08;;;;;;;4.70;4.32;;;;;;;;;;2088090;28;20104;-72
2022/06/28 07:33:27;;;;;;;5.10;4.13;;;;;;;;;;2089951;28;20037;-72
2022/06/28 07:34:46;;;;;;;4.50;4.10;;;;;;;;;;2092140;28;20037;-73
2022/06/28 07:36:05;;;;;;;5.60;4.35;;;;;;;;;;2089584;28;20057;-72
2022/06/28 07:37:23;;;;;;;6.15;4.53;;;;;;;;;;2089143;28;20044;-75
2022/06/28 07:38:42;;;;;;;15.27;4.70;;;;;;;;;;2091602;28;20033;-72
2022/06/28 07:40:02;;;;;;;11.13;4.53;;;;;;;;;;2091916;28;20033;-73
2022/06/28 07:41:22;;;;;;;6.78;4.43;;;;;;;;;;2092943;28;20036;-73
2022/06/28 07:42:41;;;;;;;7.25;4.72;;;;;;;;;;2091497;28;20072;-73
2022/06/28 07:43:59;;;;;;;4.43;4.10;;;;;;;;;;2090924;28;20557;-72
2022/06/28 07:45:18;;;;;;;4.68;3.92;;;;;;;;;;2091214;28;20036;-72
2022/06/28 07:46:39;;;;;;;4.50;4.10;;;;;;;;;;2090811;28;20021;-74
2022/06/28 07:47:58;;;;;;;4.18;3.88;;;;;;;;;;2091557;28;20036;-73
2022/06/28 07:49:20;;;;;;;5.18;4.65;;;;;;;;;;2089537;28;20060;-72
2022/06/28 07:52:36;;;;;;;14.02;5.25;;;;;;;;;;2090750;28;20025;-72
2022/06/28 07:53:55;;;;;;;4.80;4.38;;;;;;;;;;2090729;28;20075;-73
2022/06/28 07:55:14;;;;;;;4.70;4.15;;;;;;;;;;2088188;28;20041;-72
2022/06/28 07:56:33;;;;;;;5.40;4.00;;;;;;;;;;2089601;28;20032;-72
2022/06/28 07:57:52;;;;;;;4.72;4.25;;;;;;;;;;2094859;28;20119;-72
2022/06/28 07:59:11;;;;;;;4.90;3.90;;;;;;;;;;2092873;28;20096;-72
2022/06/28 08:00:30;;;;;;;6.85;4.00;;;;;;;;;;2091795;28;20125;-72
2022/06/28 08:01:49;;;;;;;4.95;4.32;;;;;;;;;;2088285;28;20093;-76
2022/06/28 08:03:08;;;;;;;4.97;4.22;;;;;;;;;;2087755;28;20028;-72
2022/06/28 08:04:27;;;;;;;6.70;3.90;;;;;;;;;;2085471;28;20033;-73